Terminal Aerodrome Forecast
Issued by NWS

Home | Current Version | Previous Version | Text Only | Print | Product List | Glossary On
Versions: 1 2 3 4 5 6 7 8 9 10 11 12 13
891
FTUS46 KLOX 260539
TAFLGB
TAF
KLGB 260539Z 2606/2706 VRB03KT P6SM SKC WS010/07025KT
     FM262100 28012KT P6SM SKC
     FM270300 VRB03KT P6SM SKC=

USA.gov is the U.S. government's official web portal to all federal, state and local government web resources and services.